createdAt,value
2023-03-17T00:00:20.626Z,65.84
2023-03-17T00:06:40.608Z,66.04
2023-03-17T00:13:03.595Z,65.91
2023-03-17T00:19:23.648Z,65.93
2023-03-17T00:25:46.653Z,65.98
2023-03-17T00:32:06.614Z,66.18
2023-03-17T00:38:29.718Z,66.23
2023-03-17T00:44:49.688Z,66.45
2023-03-17T00:51:12.577Z,66.51
2023-03-17T00:57:32.633Z,66.39
2023-03-17T01:03:55.614Z,66.3
2023-03-17T01:10:15.659Z,66.54
2023-03-17T01:16:38.701Z,66.66
2023-03-17T01:22:58.616Z,66.79
2023-03-17T01:29:21.612Z,66.67
2023-03-17T01:35:41.690Z,66.73
2023-03-17T01:42:04.610Z,66.74
2023-03-17T01:48:24.621Z,66.57
2023-03-17T01:54:47.621Z,66.88
2023-03-17T02:01:07.741Z,67.3
2023-03-17T02:07:30.576Z,67.37
2023-03-17T02:13:50.705Z,67.07
2023-03-17T02:20:13.563Z,66.8
2023-03-17T02:26:33.649Z,66.79
2023-03-17T02:32:56.833Z,66.94
2023-03-17T02:39:16.633Z,66.85
2023-03-17T02:45:39.660Z,67.06
2023-03-17T02:51:59.640Z,67.25
2023-03-17T02:58:22.596Z,67.34
2023-03-17T03:04:42.586Z,67.62
2023-03-17T03:11:05.626Z,67.46
2023-03-17T03:17:25.655Z,67.46
2023-03-17T03:23:48.574Z,67.68
2023-03-17T03:30:08.690Z,68.1
2023-03-17T03:36:31.614Z,67.99
2023-03-17T03:42:51.610Z,68.06
2023-03-17T03:49:15.644Z,68.21
2023-03-17T03:55:35.658Z,68
2023-03-17T04:01:58.573Z,68.24
2023-03-17T04:08:18.665Z,68.48
2023-03-17T04:32:18.521Z,68.79
2023-03-17T04:38:42.596Z,68.64
2023-03-17T04:45:02.601Z,68.8
2023-03-17T04:51:25.591Z,69.06
2023-03-17T04:57:46.000Z,69.08
2023-03-17T05:04:09.922Z,69.27
2023-03-17T05:10:29.131Z,69.18
2023-03-17T05:16:51.634Z,69.04
2023-03-17T05:23:11.567Z,69.21
2023-03-17T05:29:34.666Z,68.98
2023-03-17T05:35:54.610Z,69.24
2023-03-17T05:42:17.603Z,68.98
2023-03-17T05:48:37.626Z,68.86
2023-03-17T05:55:00.580Z,68.54
2023-03-17T06:01:20.662Z,68.79
2023-03-17T06:07:51.929Z,68.39
2023-03-17T06:14:03.643Z,68.44
2023-03-17T06:20:26.625Z,68.27
2023-03-17T06:26:46.611Z,67.71
2023-03-17T06:33:09.652Z,67.61
2023-03-17T06:39:29.587Z,67.07
2023-03-17T06:45:52.622Z,66.96
2023-03-17T06:52:12.621Z,66.54
2023-03-17T06:58:35.605Z,66.15
2023-03-17T07:04:55.661Z,65.54
2023-03-17T07:11:18.620Z,65.1
2023-03-17T07:17:38.584Z,64.57
2023-03-17T07:24:01.784Z,63.45
2023-03-17T07:30:21.601Z,63.16
2023-03-17T07:36:44.588Z,62.74
2023-03-17T07:43:04.629Z,62.14
2023-03-17T07:49:40.281Z,62.41
2023-03-17T07:55:47.660Z,61.88
2023-03-17T08:02:10.641Z,60.69
2023-03-17T08:08:30.613Z,60.19
2023-03-17T08:14:53.606Z,59.84
2023-03-17T08:21:15.825Z,58.88
2023-03-17T08:27:36.585Z,58.03
2023-03-17T08:33:56.616Z,57.44
2023-03-17T08:40:19.658Z,57.55
2023-03-17T08:46:39.581Z,55.58
2023-03-17T08:53:02.583Z,54.9
2023-03-17T08:59:22.672Z,54.55
2023-03-17T09:05:45.587Z,53.84
2023-03-17T09:12:05.599Z,53.19
2023-03-17T09:18:28.609Z,52.58
2023-03-17T09:24:48.579Z,50.83
2023-03-17T09:48:30.574Z,50.36
2023-03-17T09:54:53.573Z,49.52
2023-03-17T10:01:13.592Z,49.7
2023-03-17T10:07:36.600Z,49.03
2023-03-17T10:13:56.564Z,49.13
2023-03-17T10:20:19.689Z,49.16
2023-03-17T10:26:39.592Z,48.8
2023-03-17T10:33:02.648Z,48.39
2023-03-17T10:39:22.593Z,47.39
2023-03-17T10:45:45.614Z,47.29
2023-03-17T10:52:05.616Z,46.85
2023-03-17T10:58:28.589Z,47.32
2023-03-17T11:04:48.612Z,47.45
2023-03-17T11:11:11.588Z,47.07
2023-03-17T11:17:32.581Z,47.3
2023-03-17T11:23:55.623Z,46.98
2023-03-17T11:30:15.591Z,46.57
2023-03-17T11:36:38.590Z,46.43
2023-03-17T11:42:58.608Z,47.25
2023-03-17T11:49:21.573Z,47.34
2023-03-17T11:55:41.610Z,46.26
2023-03-17T12:02:04.613Z,46.6
2023-03-17T12:08:24.589Z,46.35
2023-03-17T12:14:47.611Z,47.49
2023-03-17T12:21:07.596Z,47.17
2023-03-17T12:27:30.598Z,47.89
2023-03-17T12:33:50.569Z,47.03
2023-03-17T12:40:13.697Z,46.43
2023-03-17T12:46:33.600Z,46.38
2023-03-17T12:52:56.572Z,45.98
2023-03-17T12:59:16.626Z,44.82
2023-03-17T13:05:39.572Z,44.41
2023-03-17T13:11:59.589Z,43.69
2023-03-17T13:18:22.632Z,43.51
2023-03-17T13:24:42.610Z,43.44
2023-03-17T13:31:05.647Z,44.15
2023-03-17T13:37:25.603Z,43.47
2023-03-17T13:43:48.584Z,42.72
2023-03-17T13:50:08.570Z,41.72
2023-03-17T13:56:31.969Z,42.05
2023-03-17T14:02:51.581Z,43.59
2023-03-17T14:09:14.628Z,43.47
2023-03-17T14:15:35.912Z,43.42
2023-03-17T14:21:58.656Z,44.09
2023-03-17T14:28:18.594Z,44.36
2023-03-17T14:34:41.619Z,45.43
2023-03-17T14:41:01.570Z,45.05
2023-03-17T14:47:24.579Z,44.67
2023-03-17T14:53:44.646Z,45.48
2023-03-17T15:00:07.625Z,45.93
2023-03-17T15:06:27.585Z,46.81
2023-03-17T15:12:50.593Z,46.78
2023-03-17T15:35:57.194Z,47.1
2023-03-17T15:42:16.584Z,46.32
2023-03-17T15:48:39.594Z,46.92
2023-03-17T15:54:59.615Z,48.33
2023-03-17T16:01:22.656Z,48.13
2023-03-17T16:07:42.776Z,49.83
2023-03-17T16:14:05.616Z,51.09
2023-03-17T16:20:25.626Z,50.56
2023-03-17T16:26:48.596Z,52.16
2023-03-17T16:33:08.665Z,53.75
2023-03-17T16:39:31.598Z,55.95
2023-03-17T16:45:51.576Z,56.71
2023-03-17T16:52:14.676Z,58.14
2023-03-17T16:58:34.590Z,57.86
2023-03-17T17:04:57.915Z,56.74
2023-03-17T17:11:17.611Z,56.92
2023-03-17T17:17:40.567Z,58.03
2023-03-17T17:24:00.593Z,57.85
2023-03-17T17:30:23.637Z,57.94
2023-03-17T17:36:43.594Z,58.04
2023-03-17T17:43:06.644Z,58.15
2023-03-17T17:49:26.601Z,58.49
2023-03-17T17:55:49.653Z,58.02
2023-03-17T18:02:09.595Z,58.38
2023-03-17T18:08:32.629Z,58.67
2023-03-17T18:14:52.576Z,58.1
2023-03-17T18:21:15.585Z,58.84
2023-03-17T18:27:35.604Z,59.04
2023-03-17T18:33:58.869Z,62.08
2023-03-17T18:40:19.328Z,67.4
2023-03-17T18:46:41.698Z,68.83
2023-03-17T18:53:01.678Z,70.5
2023-03-17T18:59:24.604Z,71.44
2023-03-17T19:05:44.762Z,72.7
2023-03-17T19:12:07.598Z,74.85
2023-03-17T19:18:27.596Z,77.84
2023-03-17T19:24:50.691Z,79.47
2023-03-17T19:31:10.637Z,79.64
2023-03-17T19:37:33.582Z,79.54
2023-03-17T19:43:53.621Z,79.72
2023-03-17T19:50:16.566Z,79.43
2023-03-17T19:56:36.584Z,78.2
2023-03-17T20:02:59.592Z,78.76
2023-03-17T20:09:19.604Z,79.01
2023-03-17T20:15:42.613Z,79.35
2023-03-17T20:22:02.587Z,80.24
2023-03-17T20:28:25.639Z,80.73
2023-03-17T20:45:33.564Z,81.59
2023-03-17T20:51:56.566Z,81.94
2023-03-17T20:58:16.572Z,81.98
2023-03-17T21:04:39.616Z,82.65
2023-03-17T21:10:59.565Z,83.38
2023-03-17T21:17:22.604Z,83.89
2023-03-17T21:23:42.602Z,84.04
2023-03-17T21:30:05.660Z,84.56
2023-03-17T21:36:25.589Z,85.41
2023-03-17T21:42:48.581Z,85.45
2023-03-17T21:49:08.625Z,86.02
2023-03-17T21:55:31.591Z,85.97
2023-03-17T22:01:51.652Z,85.99
2023-03-17T22:08:14.589Z,85.87
2023-03-17T22:14:34.580Z,86.25
2023-03-17T22:20:57.636Z,86.61
2023-03-17T22:27:17.600Z,87
2023-03-17T22:33:40.608Z,87.14
2023-03-17T22:40:00.694Z,87.36
2023-03-17T22:46:23.782Z,87.64
2023-03-17T22:52:43.619Z,87.88
2023-03-17T22:59:06.599Z,88.19
2023-03-17T23:22:04.590Z,88.86
2023-03-17T23:28:24.583Z,88.94
2023-03-17T23:34:47.592Z,88.83
2023-03-17T23:41:07.637Z,88.89
2023-03-17T23:47:30.582Z,89.01
2023-03-17T23:53:50.585Z,88.96
